createdAt,value
2023-04-27T00:00:21.989Z,71.61
2023-04-27T00:02:49.810Z,71.06
2023-04-27T00:05:19.307Z,70.95
2023-04-27T00:07:47.365Z,70.68
2023-04-27T00:10:14.912Z,70.15
2023-04-27T00:12:42.880Z,70.33
2023-04-27T00:15:11.769Z,70.24
2023-04-27T00:17:39.982Z,70.10
2023-04-27T00:20:11.943Z,70.15
2023-04-27T00:22:41.050Z,70.48
2023-04-27T00:25:09.350Z,70.40
2023-04-27T00:27:37.052Z,69.98
2023-04-27T00:30:05.566Z,69.92
2023-04-27T00:32:33.201Z,70.49
2023-04-27T00:35:00.975Z,70.66
2023-04-27T00:37:28.749Z,70.52
2023-04-27T00:39:57.645Z,70.63
2023-04-27T00:42:25.243Z,70.63
2023-04-27T00:44:52.860Z,71.07
2023-04-27T00:47:23.604Z,71.31
2023-04-27T00:49:51.455Z,71.55
2023-04-27T00:52:19.545Z,71.11
2023-04-27T00:54:48.534Z,71.01
2023-04-27T00:57:17.901Z,70.59
2023-04-27T00:59:46.147Z,71.07
2023-04-27T01:02:13.933Z,71.47
2023-04-27T01:04:42.467Z,70.77
2023-04-27T01:07:10.478Z,71.21
2023-04-27T01:09:38.299Z,70.92
2023-04-27T01:12:06.411Z,70.97
2023-04-27T01:14:38.107Z,71.35
2023-04-27T01:17:05.809Z,70.94
2023-04-27T01:19:33.532Z,70.58
2023-04-27T01:22:01.072Z,70.81
2023-04-27T01:24:30.005Z,71.49
2023-04-27T01:26:57.620Z,70.85
2023-04-27T01:29:25.272Z,70.69
2023-04-27T01:31:52.849Z,70.93
2023-04-27T01:34:20.446Z,71.22
2023-04-27T01:36:48.034Z,71.47
2023-04-27T01:39:15.686Z,71.28
2023-04-27T01:41:44.667Z,71.70
2023-04-27T01:44:12.853Z,71.76
2023-04-27T01:46:41.147Z,71.96
2023-04-27T01:49:08.841Z,71.74
2023-04-27T01:51:36.554Z,72.66
2023-04-27T01:54:04.291Z,73.18
2023-04-27T01:56:31.936Z,73.25
2023-04-27T01:59:00.890Z,73.20
2023-04-27T02:01:28.612Z,74.32
2023-04-27T02:03:56.352Z,74.11
2023-04-27T02:06:24.089Z,74.58
2023-04-27T02:08:51.704Z,74.79
2023-04-27T02:11:19.337Z,74.81
2023-04-27T02:13:46.991Z,74.87
2023-04-27T02:16:15.976Z,74.80
2023-04-27T02:18:44.573Z,75.39
2023-04-27T02:21:12.405Z,75.02
2023-04-27T02:23:39.999Z,74.67
2023-04-27T02:26:07.642Z,74.50
2023-04-27T02:28:35.161Z,74.41
2023-04-27T02:31:03.285Z,74.67
2023-04-27T02:33:32.194Z,74.19
2023-04-27T02:35:59.793Z,73.85
2023-04-27T02:38:27.780Z,73.37
2023-04-27T02:40:55.888Z,73.99
2023-04-27T02:43:23.646Z,74.53
2023-04-27T02:45:51.357Z,75.67
2023-04-27T02:48:19.034Z,75.44
2023-04-27T02:50:47.948Z,75.38
2023-04-27T02:53:15.667Z,75.67
2023-04-27T02:55:48.090Z,75.38
2023-04-27T02:58:16.558Z,76.33
2023-04-27T03:00:45.302Z,76.44
2023-04-27T03:03:13.213Z,76.79
2023-04-27T03:05:40.939Z,77.27
2023-04-27T03:08:09.851Z,77.43
2023-04-27T03:10:37.434Z,77.61
2023-04-27T03:13:05.103Z,77.88
2023-04-27T03:15:32.731Z,77.26
2023-04-27T03:18:00.384Z,77.20
2023-04-27T03:20:28.080Z,77.02
2023-04-27T03:22:55.729Z,76.71
2023-04-27T03:25:24.966Z,75.37
2023-04-27T03:27:52.606Z,75.91
2023-04-27T03:30:20.512Z,75.98
2023-04-27T03:32:48.124Z,75.88
2023-04-27T03:35:15.900Z,75.35
2023-04-27T03:37:45.830Z,75.60
2023-04-27T03:40:14.752Z,74.89
2023-04-27T03:42:43.716Z,75.42
2023-04-27T03:45:12.370Z,75.58
2023-04-27T03:47:40.133Z,75.44
2023-04-27T03:50:08.210Z,74.99
2023-04-27T03:52:35.819Z,75.10
2023-04-27T03:55:03.522Z,76.13
2023-04-27T03:57:31.097Z,74.85
2023-04-27T04:00:00.066Z,75.33
2023-04-27T04:02:27.729Z,75.45
2023-04-27T04:04:55.758Z,74.58
2023-04-27T04:07:23.618Z,73.97
2023-04-27T04:09:51.250Z,73.81
2023-04-27T04:12:18.819Z,74.66
2023-04-27T04:14:48.835Z,74.18
2023-04-27T04:17:17.994Z,74.32
2023-04-27T04:19:45.581Z,73.91
2023-04-27T04:22:13.151Z,74.13
2023-04-27T04:24:41.081Z,74.78
2023-04-27T04:27:09.002Z,75.73
2023-04-27T04:29:36.616Z,75.70
2023-04-27T04:32:04.246Z,74.92
2023-04-27T04:34:33.529Z,75.68
2023-04-27T04:37:01.096Z,74.94
2023-04-27T04:39:31.801Z,75.40
2023-04-27T04:41:59.397Z,75.58
2023-04-27T04:44:26.988Z,76.89
2023-04-27T04:46:55.538Z,77.21
2023-04-27T04:49:23.303Z,76.95
2023-04-27T04:51:52.209Z,76.96
2023-04-27T04:54:19.998Z,76.61
2023-04-27T04:56:47.554Z,76.41
2023-04-27T04:59:15.387Z,75.93
2023-04-27T05:01:43.175Z,75.99
2023-04-27T05:04:11.027Z,76.02
2023-04-27T05:06:38.854Z,76.39
2023-04-27T05:09:07.896Z,75.77
2023-04-27T05:11:35.701Z,76.45
2023-04-27T05:14:03.421Z,76.11
2023-04-27T05:16:31.096Z,75.07
2023-04-27T05:18:59.020Z,74.60
2023-04-27T05:21:26.597Z,74.34
2023-04-27T05:23:54.224Z,75.00
2023-04-27T05:26:23.426Z,76.23
2023-04-27T05:28:51.397Z,76.33
2023-04-27T05:31:19.445Z,75.86
2023-04-27T05:33:47.109Z,75.62
2023-04-27T05:36:14.738Z,75.21
2023-04-27T05:38:42.952Z,75.56
2023-04-27T05:41:10.742Z,73.93
2023-04-27T05:43:39.712Z,75.38
2023-04-27T05:46:07.676Z,74.13
2023-04-27T05:48:35.739Z,75.04
2023-04-27T05:51:03.988Z,74.34
2023-04-27T05:53:31.810Z,74.12
2023-04-27T05:56:01.009Z,74.52
2023-04-27T05:58:28.821Z,75.30
2023-04-27T06:00:58.167Z,75.27
2023-04-27T06:03:26.126Z,74.21
2023-04-27T06:05:58.744Z,73.73
2023-04-27T06:08:26.973Z,74.51
2023-04-27T06:10:55.093Z,73.68
2023-04-27T06:13:22.901Z,72.55
2023-04-27T06:15:50.545Z,73.33
2023-04-27T06:18:19.557Z,72.83
2023-04-27T06:20:47.191Z,72.09
2023-04-27T06:23:14.834Z,72.15
2023-04-27T06:25:42.436Z,71.52
2023-04-27T06:28:09.995Z,72.62
2023-04-27T06:30:39.380Z,72.49
2023-04-27T06:33:07.335Z,72.08
2023-04-27T06:35:36.331Z,72.72
2023-04-27T06:38:04.826Z,72.28
2023-04-27T06:40:34.650Z,73.54
2023-04-27T06:43:02.241Z,73.09
2023-04-27T06:45:29.951Z,71.44
2023-04-27T06:47:57.663Z,73.41
2023-04-27T06:50:25.317Z,72.85
2023-04-27T06:52:54.271Z,71.32
2023-04-27T06:55:21.953Z,72.40
2023-04-27T06:57:49.533Z,71.97
2023-04-27T07:00:17.615Z,72.94
2023-04-27T07:02:45.249Z,71.30
2023-04-27T07:05:12.834Z,71.06
2023-04-27T07:07:40.627Z,70.77
2023-04-27T07:10:10.672Z,71.27
2023-04-27T07:12:38.417Z,69.96
2023-04-27T07:15:07.430Z,68.79
2023-04-27T07:17:35.157Z,70.80
2023-04-27T07:20:03.965Z,71.44
2023-04-27T07:22:31.708Z,70.61
2023-04-27T07:24:59.554Z,69.47
2023-04-27T07:27:28.763Z,69.41
2023-04-27T07:29:56.767Z,68.29
2023-04-27T07:32:24.454Z,69.21
2023-04-27T07:34:54.552Z,69.33
2023-04-27T07:37:22.664Z,67.59
2023-04-27T07:39:51.973Z,68.38
2023-04-27T07:42:19.901Z,68.53
2023-04-27T07:44:50.265Z,67.30
2023-04-27T07:47:18.741Z,65.68
2023-04-27T07:49:47.135Z,64.88
2023-04-27T07:52:14.781Z,67.23
2023-04-27T07:54:42.446Z,65.97
2023-04-27T07:57:11.552Z,66.58
2023-04-27T07:59:39.738Z,66.74
2023-04-27T08:02:18.991Z,65.61
2023-04-27T08:04:48.240Z,65.64
2023-04-27T08:07:17.257Z,64.65
2023-04-27T08:09:45.767Z,64.97
2023-04-27T08:12:13.399Z,65.42
2023-04-27T08:14:41.368Z,63.90
2023-04-27T08:17:11.352Z,64.92
2023-04-27T08:19:38.997Z,63.80
2023-04-27T08:22:06.661Z,64.00
2023-04-27T08:24:34.215Z,62.37
2023-04-27T08:27:03.315Z,62.69
2023-04-27T08:29:31.164Z,62.45
2023-04-27T08:32:00.377Z,62.49
2023-04-27T08:34:29.739Z,61.30
2023-04-27T08:36:57.768Z,61.13
2023-04-27T08:39:25.774Z,61.26
2023-04-27T08:41:53.481Z,61.79
2023-04-27T08:44:21.114Z,61.92
2023-04-27T08:46:48.810Z,62.13
2023-04-27T08:49:17.321Z,61.69
2023-04-27T08:51:46.639Z,63.05
2023-04-27T08:54:14.243Z,62.50
2023-04-27T08:56:42.360Z,58.43
2023-04-27T08:59:15.966Z,59.25
2023-04-27T09:01:48.537Z,59.73
2023-04-27T09:04:17.799Z,60.86
2023-04-27T09:06:47.126Z,59.80
2023-04-27T09:09:23.311Z,58.20
2023-04-27T09:11:51.193Z,57.46
2023-04-27T09:14:20.510Z,57.72
2023-04-27T09:16:56.219Z,57.32
2023-04-27T09:19:28.477Z,57.02
2023-04-27T09:22:06.347Z,56.11
2023-04-27T09:24:34.248Z,53.17
2023-04-27T09:27:03.039Z,56.47
2023-04-27T09:29:34.615Z,56.70
2023-04-27T09:32:16.685Z,54.79
2023-04-27T09:34:44.876Z,55.57
2023-04-27T09:37:14.374Z,56.49
2023-04-27T09:39:42.765Z,54.74
2023-04-27T09:42:10.647Z,56.52
2023-04-27T09:44:38.247Z,57.14
2023-04-27T09:47:06.087Z,55.50
2023-04-27T09:49:35.606Z,54.65
2023-04-27T09:52:03.321Z,54.79
2023-04-27T09:54:33.125Z,55.31
2023-04-27T09:57:12.779Z,55.22
2023-04-27T09:59:49.158Z,56.58
2023-04-27T10:02:25.280Z,56.31
2023-04-27T10:05:14.367Z,56.10
2023-04-27T10:07:42.370Z,55.88
2023-04-27T10:10:17.670Z,54.71
2023-04-27T10:12:45.487Z,55.75
2023-04-27T10:15:14.850Z,55.25
2023-04-27T10:17:49.438Z,55.58
2023-04-27T10:20:17.780Z,55.30
2023-04-27T10:22:48.152Z,54.22
2023-04-27T10:25:20.213Z,55.94
2023-04-27T10:27:52.707Z,55.05
2023-04-27T10:30:21.350Z,55.08
2023-04-27T10:32:53.288Z,54.21
2023-04-27T10:35:22.432Z,54.35
2023-04-27T10:37:49.978Z,52.59
2023-04-27T10:40:19.218Z,53.26
2023-04-27T10:42:49.234Z,51.56
2023-04-27T10:45:30.259Z,51.62
2023-04-27T10:48:00.143Z,52.51
2023-04-27T10:50:28.740Z,52.46
2023-04-27T10:53:01.535Z,52.99
2023-04-27T10:55:31.098Z,53.13
2023-04-27T10:57:59.261Z,52.34
2023-04-27T11:00:28.475Z,52.13
2023-04-27T11:02:57.457Z,52.60
2023-04-27T11:05:30.542Z,50.97
2023-04-27T11:08:06.779Z,52.44
2023-04-27T11:10:36.998Z,52.04
2023-04-27T11:13:10.175Z,53.34
2023-04-27T11:15:47.969Z,52.51
2023-04-27T11:18:16.620Z,52.09
2023-04-27T11:20:45.046Z,50.54
2023-04-27T11:23:12.883Z,50.50
2023-04-27T11:25:41.919Z,52.20
2023-04-27T11:28:18.342Z,51.97
2023-04-27T11:30:46.005Z,50.83
2023-04-27T11:33:13.637Z,50.41
2023-04-27T11:35:42.488Z,50.18
2023-04-27T11:38:16.900Z,49.32
2023-04-27T11:40:45.970Z,49.35
2023-04-27T11:43:14.166Z,50.63
2023-04-27T11:45:43.568Z,49.36
2023-04-27T11:48:14.737Z,48.26
2023-04-27T11:50:42.581Z,48.56
2023-04-27T11:53:10.180Z,49.86
2023-04-27T11:55:40.990Z,49.23
2023-04-27T11:58:14.881Z,48.87
2023-04-27T12:00:42.739Z,48.39
2023-04-27T12:03:10.941Z,50.41
2023-04-27T12:05:48.942Z,51.23
2023-04-27T12:08:17.060Z,50.61
2023-04-27T12:10:45.406Z,50.41
2023-04-27T12:13:15.196Z,49.32
2023-04-27T12:15:43.125Z,49.68
2023-04-27T12:18:11.710Z,49.65
2023-04-27T12:20:39.377Z,50.36
2023-04-27T12:23:07.298Z,50.12
2023-04-27T12:25:35.072Z,50.89
2023-04-27T12:28:02.662Z,49.33
2023-04-27T12:30:31.664Z,49.07
2023-04-27T12:33:00.825Z,48.57
2023-04-27T12:35:31.813Z,49.49
2023-04-27T12:37:59.657Z,49.58
2023-04-27T12:40:27.312Z,49.59
2023-04-27T12:42:54.890Z,49.42
2023-04-27T12:45:22.707Z,48.00
2023-04-27T12:48:02.618Z,48.75
2023-04-27T12:50:32.056Z,49.86
2023-04-27T12:52:59.886Z,49.23
2023-04-27T12:57:58.430Z,49.62
2023-04-27T13:00:26.244Z,49.75
2023-04-27T13:02:56.687Z,49.04
2023-04-27T13:05:24.695Z,47.37
2023-04-27T13:07:52.449Z,47.76
2023-04-27T13:10:20.135Z,48.01
2023-04-27T13:12:47.702Z,48.94
2023-04-27T13:15:15.430Z,50.22
2023-04-27T13:17:43.872Z,46.94
2023-04-27T13:20:26.831Z,48.29
2023-04-27T13:22:54.512Z,46.67
2023-04-27T13:25:22.752Z,47.76
2023-04-27T13:27:54.260Z,47.81
2023-04-27T13:30:22.142Z,48.45
2023-04-27T13:32:49.824Z,47.96
2023-04-27T13:35:22.443Z,48.64
2023-04-27T13:37:50.298Z,49.15
2023-04-27T13:40:17.962Z,48.84
2023-04-27T13:42:45.505Z,49.60
2023-04-27T13:45:13.029Z,50.55
2023-04-27T13:47:40.804Z,51.84
2023-04-27T13:50:10.115Z,50.64
2023-04-27T13:52:39.778Z,48.83
2023-04-27T13:55:09.485Z,50.00
2023-04-27T13:57:37.072Z,52.14
2023-04-27T14:00:08.089Z,50.82
2023-04-27T14:02:36.201Z,50.70
2023-04-27T14:05:04.867Z,49.63
2023-04-27T14:07:34.211Z,50.04
2023-04-27T14:10:03.805Z,49.93
2023-04-27T14:12:31.722Z,50.33
2023-04-27T14:14:59.391Z,50.75
2023-04-27T14:17:27.078Z,50.45
2023-04-27T14:19:54.724Z,50.19
2023-04-27T14:22:22.364Z,50.04
2023-04-27T14:24:50.086Z,50.09
2023-04-27T14:27:19.117Z,49.77
2023-04-27T14:29:46.712Z,50.40
2023-04-27T14:32:14.472Z,51.26
2023-04-27T14:34:42.256Z,50.20
2023-04-27T14:37:09.897Z,50.85
2023-04-27T14:39:37.523Z,49.64
2023-04-27T14:42:05.382Z,49.63
2023-04-27T14:44:36.125Z,50.74
2023-04-27T14:47:03.890Z,49.53
2023-04-27T14:49:32.092Z,50.19
2023-04-27T14:52:03.211Z,49.57
2023-04-27T14:54:30.895Z,51.13
2023-04-27T14:56:58.936Z,51.60
2023-04-27T14:59:26.778Z,50.84
2023-04-27T15:01:56.121Z,50.01
2023-04-27T15:04:23.918Z,51.57
2023-04-27T15:06:51.714Z,50.31
2023-04-27T15:09:19.322Z,50.00
2023-04-27T15:11:46.999Z,50.45
2023-04-27T15:14:14.585Z,50.33
2023-04-27T15:16:42.148Z,51.29
2023-04-27T15:19:11.777Z,51.66
2023-04-27T15:21:39.700Z,51.21
2023-04-27T15:24:07.551Z,52.13
2023-04-27T15:26:35.290Z,51.24
2023-04-27T15:29:02.882Z,51.20
2023-04-27T15:31:30.627Z,50.77
2023-04-27T15:33:58.257Z,51.93
2023-04-27T15:36:28.315Z,51.43
2023-04-27T15:38:55.901Z,51.77
2023-04-27T15:41:23.428Z,51.56
2023-04-27T15:43:51.971Z,52.19
2023-04-27T15:46:19.877Z,52.64
2023-04-27T15:48:47.491Z,52.22
2023-04-27T15:51:15.079Z,52.15
2023-04-27T15:53:44.087Z,52.62
2023-04-27T15:56:11.781Z,52.13
2023-04-27T15:58:39.335Z,52.62
2023-04-27T16:01:07.020Z,52.29
2023-04-27T16:03:34.709Z,52.54
2023-04-27T16:06:02.377Z,53.09
2023-04-27T16:08:30.685Z,52.73
2023-04-27T16:10:59.697Z,52.75
2023-04-27T16:13:28.464Z,53.00
2023-04-27T16:15:56.313Z,53.26
2023-04-27T16:18:23.895Z,53.23
2023-04-27T16:20:51.465Z,52.93
2023-04-27T16:23:19.099Z,53.38
2023-04-27T16:25:46.780Z,52.98
2023-04-27T16:28:17.908Z,53.78
2023-04-27T16:30:45.484Z,53.67
2023-04-27T16:33:13.124Z,53.35
2023-04-27T16:35:40.718Z,53.76
2023-04-27T16:38:08.257Z,54.18
2023-04-27T16:40:35.847Z,53.84
2023-04-27T16:43:03.552Z,54.13
2023-04-27T16:45:32.510Z,54.57
2023-04-27T16:48:00.167Z,54.60
2023-04-27T16:50:28.152Z,55.14
2023-04-27T16:52:55.852Z,55.19
2023-04-27T16:55:23.457Z,55.42
2023-04-27T16:57:51.082Z,54.99
2023-04-27T17:00:18.766Z,55.52
2023-04-27T17:02:47.843Z,55.98
2023-04-27T17:05:15.525Z,55.48
2023-04-27T17:07:43.353Z,56.49
2023-04-27T17:10:11.392Z,56.81
2023-04-27T17:12:39.391Z,55.98
2023-04-27T17:15:08.254Z,56.28
2023-04-27T17:17:36.369Z,56.69
2023-04-27T17:20:06.717Z,57.36
2023-04-27T17:22:34.352Z,57.27
2023-04-27T17:25:02.027Z,57.18
2023-04-27T17:27:29.747Z,57.41
2023-04-27T17:29:57.968Z,58.04
2023-04-27T17:32:26.153Z,58.45
2023-04-27T17:34:53.902Z,59.35
2023-04-27T17:37:22.886Z,59.58
2023-04-27T17:39:51.692Z,59.43
2023-04-27T17:42:19.829Z,59.43
2023-04-27T17:44:47.838Z,59.74
2023-04-27T17:47:16.988Z,60.16
2023-04-27T17:49:45.335Z,60.62
2023-04-27T17:52:13.134Z,60.71
2023-04-27T17:54:42.991Z,61.07
2023-04-27T17:57:10.784Z,61.26
2023-04-27T17:59:38.569Z,61.67
2023-04-27T18:02:06.351Z,61.14
2023-04-27T18:04:34.519Z,61.26
2023-04-27T18:07:02.551Z,61.94
2023-04-27T18:09:32.857Z,62.04
2023-04-27T18:12:02.353Z,62.01
2023-04-27T18:14:30.343Z,61.98
2023-04-27T18:16:58.246Z,62.19
2023-04-27T18:19:26.151Z,61.71
2023-04-27T18:21:53.951Z,62.15
2023-04-27T18:24:21.838Z,62.45
2023-04-27T18:26:49.650Z,62.71
2023-04-27T18:29:18.929Z,63.17
2023-04-27T18:31:46.767Z,63.66
2023-04-27T18:34:14.392Z,63.66
2023-04-27T18:36:41.987Z,64.15
2023-04-27T18:39:09.983Z,64.18
2023-04-27T18:41:37.648Z,64.09
2023-04-27T18:44:06.046Z,64.39
2023-04-27T18:46:35.073Z,64.54
2023-04-27T18:49:03.022Z,64.59
2023-04-27T18:51:32.049Z,64.86
2023-04-27T18:53:59.668Z,64.32
2023-04-27T18:56:27.322Z,64.37
2023-04-27T18:58:55.842Z,64.38
2023-04-27T19:01:24.236Z,64.44
2023-04-27T19:03:53.694Z,64.42
2023-04-27T19:06:21.547Z,64.52
2023-04-27T19:08:49.265Z,64.95
2023-04-27T19:11:19.333Z,65.25
2023-04-27T19:13:46.913Z,65.54
2023-04-27T19:16:15.344Z,65.68
2023-04-27T19:18:43.500Z,65.27
2023-04-27T19:21:12.852Z,65.60
2023-04-27T19:23:40.544Z,65.08
2023-04-27T19:26:13.185Z,65.23
2023-04-27T19:28:41.735Z,66.13
2023-04-27T19:31:09.946Z,66.65
2023-04-27T19:33:37.617Z,66.41
2023-04-27T19:36:05.529Z,67.24
2023-04-27T19:38:34.607Z,66.83
2023-04-27T19:41:04.182Z,66.70
2023-04-27T19:43:31.752Z,66.82
2023-04-27T19:45:59.469Z,66.65
2023-04-27T19:48:27.142Z,66.98
2023-04-27T19:50:54.833Z,68.34
2023-04-27T19:53:22.439Z,68.26
2023-04-27T19:55:51.448Z,67.78
2023-04-27T19:58:19.099Z,67.37
2023-04-27T20:00:46.889Z,66.97
2023-04-27T20:03:14.731Z,66.24
2023-04-27T20:05:43.554Z,66.32
2023-04-27T20:08:11.449Z,66.70
2023-04-27T20:10:40.427Z,66.48
2023-04-27T20:13:09.801Z,66.72
2023-04-27T20:15:37.589Z,66.99
2023-04-27T20:18:05.331Z,67.09
2023-04-27T20:20:32.963Z,66.97
2023-04-27T20:23:00.582Z,67.29
2023-04-27T20:25:28.244Z,67.32
2023-04-27T20:27:55.888Z,67.54
2023-04-27T20:30:24.846Z,68.34
2023-04-27T20:32:52.453Z,68.23
2023-04-27T20:35:20.081Z,68.30
2023-04-27T20:37:47.706Z,68.36
2023-04-27T20:40:17.995Z,68.25
2023-04-27T20:42:46.184Z,67.54
2023-04-27T20:45:13.820Z,67.33
2023-04-27T20:47:43.156Z,67.54
2023-04-27T20:50:11.311Z,67.51
2023-04-27T20:52:39.033Z,67.15
2023-04-27T20:55:07.395Z,67.62
2023-04-27T20:57:35.028Z,67.48
2023-04-27T21:00:03.593Z,67.28
2023-04-27T21:02:31.318Z,66.91
2023-04-27T21:05:00.311Z,66.53
2023-04-27T21:07:28.158Z,67.00
2023-04-27T21:09:55.718Z,67.41
2023-04-27T21:12:23.357Z,67.77
2023-04-27T21:14:50.997Z,67.31
2023-04-27T21:17:18.547Z,67.17
2023-04-27T21:19:46.288Z,66.98
2023-04-27T21:22:15.286Z,67.04
2023-04-27T21:24:42.859Z,67.32
2023-04-27T21:27:11.416Z,66.75
2023-04-27T21:29:38.953Z,66.70
2023-04-27T21:32:06.765Z,66.77
2023-04-27T21:34:34.351Z,67.17
2023-04-27T21:37:01.945Z,66.75
2023-04-27T21:39:30.974Z,66.60
2023-04-27T21:41:58.590Z,66.83
2023-04-27T21:44:26.328Z,66.28
2023-04-27T21:46:53.907Z,65.44
2023-04-27T21:49:21.592Z,65.42
2023-04-27T21:51:49.157Z,65.93
2023-04-27T21:54:16.934Z,65.88
2023-04-27T21:56:46.198Z,65.66
2023-04-27T21:59:13.882Z,65.91
2023-04-27T22:01:41.628Z,66.09
2023-04-27T22:04:09.791Z,66.22
2023-04-27T22:06:37.970Z,66.57
2023-04-27T22:09:07.801Z,67.10
2023-04-27T22:11:35.794Z,67.74
2023-04-27T22:14:04.740Z,67.81
2023-04-27T22:16:32.377Z,67.96
2023-04-27T22:19:01.071Z,68.48
2023-04-27T22:21:29.371Z,69.10
2023-04-27T22:23:56.902Z,69.54
2023-04-27T22:26:24.577Z,68.94
2023-04-27T22:28:52.218Z,69.16
2023-04-27T22:31:21.172Z,69.64
2023-04-27T22:33:48.834Z,69.38
2023-04-27T22:36:16.385Z,69.76
2023-04-27T22:38:43.993Z,70.10
2023-04-27T22:41:11.668Z,70.21
2023-04-27T22:43:39.352Z,70.62
2023-04-27T22:46:06.940Z,70.63
2023-04-27T22:48:36.878Z,70.34
2023-04-27T22:54:45.531Z,71.05
2023-04-27T22:57:13.093Z,71.27
2023-04-27T22:59:40.810Z,71.49
2023-04-27T23:02:08.462Z,71.20
2023-04-27T23:04:37.847Z,70.96
2023-04-27T23:07:05.609Z,70.97
2023-04-27T23:09:34.589Z,71.25
2023-04-27T23:12:02.169Z,71.21
2023-04-27T23:14:30.283Z,70.71
2023-04-27T23:16:57.923Z,70.40
2023-04-27T23:19:25.724Z,70.42
2023-04-27T23:21:54.808Z,70.32
2023-04-27T23:24:22.437Z,70.64
2023-04-27T23:26:50.047Z,70.55
2023-04-27T23:29:17.731Z,71.05
2023-04-27T23:31:45.532Z,71.30
2023-04-27T23:34:13.326Z,71.26
2023-04-27T23:36:41.612Z,70.57
2023-04-27T23:39:10.815Z,70.68
2023-04-27T23:41:38.500Z,71.02
2023-04-27T23:44:06.288Z,71.35
2023-04-27T23:46:33.888Z,71.19
2023-04-27T23:49:03.457Z,71.69
2023-04-27T23:51:31.523Z,71.73
2023-04-27T23:53:59.128Z,71.82
2023-04-27T23:56:28.092Z,72.70
2023-04-27T23:58:55.690Z,72.80
